sensor_id;sensor_type;location;lat;lon;timestamp;P1;durP1;ratioP1;P2;durP2;ratioP2
6973;SDS011;3527;52.376;8.990;2022-08-07T00:02:31;6.40;;;4.00;;
6973;SDS011;3527;52.376;8.990;2022-08-07T00:05:27;5.03;;;3.97;;
6973;SDS011;3527;52.376;8.990;2022-08-07T00:08:15;4.93;;;3.70;;
6973;SDS011;3527;52.376;8.990;2022-08-07T00:11:05;5.20;;;3.63;;
6973;SDS011;3527;52.376;8.990;2022-08-07T00:13:55;6.53;;;4.30;;
6973;SDS011;3527;52.376;8.990;2022-08-07T00:16:44;6.10;;;4.07;;
6973;SDS011;3527;52.376;8.990;2022-08-07T00:19:32;5.83;;;3.60;;
6973;SDS011;3527;52.376;8.990;2022-08-07T00:22:39;4.73;;;3.67;;
6973;SDS011;3527;52.376;8.990;2022-08-07T00:25:37;6.67;;;4.10;;
6973;SDS011;3527;52.376;8.990;2022-08-07T00:28:28;4.53;;;3.83;;
6973;SDS011;3527;52.376;8.990;2022-08-07T00:31:19;6.10;;;4.17;;
6973;SDS011;3527;52.376;8.990;2022-08-07T00:34:06;6.30;;;4.87;;
6973;SDS011;3527;52.376;8.990;2022-08-07T00:36:54;5.60;;;4.73;;
6973;SDS011;3527;52.376;8.990;2022-08-07T00:39:42;6.07;;;4.80;;
6973;SDS011;3527;52.376;8.990;2022-08-07T00:42:31;8.17;;;5.20;;
6973;SDS011;3527;52.376;8.990;2022-08-07T00:45:22;5.90;;;4.60;;
6973;SDS011;3527;52.376;8.990;2022-08-07T00:48:09;7.87;;;5.50;;
6973;SDS011;3527;52.376;8.990;2022-08-07T00:50:57;6.87;;;5.20;;
6973;SDS011;3527;52.376;8.990;2022-08-07T00:53:46;7.73;;;5.80;;
6973;SDS011;3527;52.376;8.990;2022-08-07T00:56:40;7.27;;;5.47;;
6973;SDS011;3527;52.376;8.990;2022-08-07T00:59:31;6.97;;;5.20;;
6973;SDS011;3527;52.376;8.990;2022-08-07T01:02:22;7.10;;;5.20;;
6973;SDS011;3527;52.376;8.990;2022-08-07T01:05:15;8.67;;;5.50;;
6973;SDS011;3527;52.376;8.990;2022-08-07T01:08:05;7.47;;;4.53;;
6973;SDS011;3527;52.376;8.990;2022-08-07T01:10:54;8.13;;;5.50;;
6973;SDS011;3527;52.376;8.990;2022-08-07T01:13:46;7.67;;;5.93;;
6973;SDS011;3527;52.376;8.990;2022-08-07T01:16:41;6.60;;;4.93;;
6973;SDS011;3527;52.376;8.990;2022-08-07T01:19:33;6.47;;;5.23;;
6973;SDS011;3527;52.376;8.990;2022-08-07T01:22:25;7.87;;;5.97;;
6973;SDS011;3527;52.376;8.990;2022-08-07T01:25:15;10.20;;;5.87;;
6973;SDS011;3527;52.376;8.990;2022-08-07T01:28:22;6.67;;;5.63;;
6973;SDS011;3527;52.376;8.990;2022-08-07T01:31:10;8.07;;;5.60;;
6973;SDS011;3527;52.376;8.990;2022-08-07T01:34:03;9.20;;;6.10;;
6973;SDS011;3527;52.376;8.990;2022-08-07T01:36:54;8.60;;;5.43;;
6973;SDS011;3527;52.376;8.990;2022-08-07T01:39:44;9.30;;;5.70;;
6973;SDS011;3527;52.376;8.990;2022-08-07T01:42:33;7.10;;;5.73;;
6973;SDS011;3527;52.376;8.990;2022-08-07T01:45:41;9.13;;;5.80;;
6973;SDS011;3527;52.376;8.990;2022-08-07T01:48:32;7.20;;;5.20;;
6973;SDS011;3527;52.376;8.990;2022-08-07T01:51:20;7.13;;;5.53;;
6973;SDS011;3527;52.376;8.990;2022-08-07T01:54:29;9.43;;;5.53;;
6973;SDS011;3527;52.376;8.990;2022-08-07T01:57:24;8.33;;;5.80;;
6973;SDS011;3527;52.376;8.990;2022-08-07T02:00:16;7.40;;;5.50;;
6973;SDS011;3527;52.376;8.990;2022-08-07T02:03:06;11.00;;;6.53;;
6973;SDS011;3527;52.376;8.990;2022-08-07T02:06:09;7.40;;;6.00;;
6973;SDS011;3527;52.376;8.990;2022-08-07T02:09:17;8.63;;;5.80;;
6973;SDS011;3527;52.376;8.990;2022-08-07T02:12:27;7.37;;;5.87;;
6973;SDS011;3527;52.376;8.990;2022-08-07T02:15:22;6.87;;;5.40;;
6973;SDS011;3527;52.376;8.990;2022-08-07T02:18:13;8.10;;;5.83;;
6973;SDS011;3527;52.376;8.990;2022-08-07T02:21:04;8.63;;;6.50;;
6973;SDS011;3527;52.376;8.990;2022-08-07T02:24:01;6.80;;;5.43;;
6973;SDS011;3527;52.376;8.990;2022-08-07T02:26:49;9.73;;;6.57;;
6973;SDS011;3527;52.376;8.990;2022-08-07T02:29:38;7.87;;;5.90;;
6973;SDS011;3527;52.376;8.990;2022-08-07T02:32:36;7.33;;;5.90;;
6973;SDS011;3527;52.376;8.990;2022-08-07T02:35:43;7.60;;;6.33;;
6973;SDS011;3527;52.376;8.990;2022-08-07T02:38:54;7.57;;;5.97;;
6973;SDS011;3527;52.376;8.990;2022-08-07T02:41:43;9.80;;;5.70;;
6973;SDS011;3527;52.376;8.990;2022-08-07T02:44:36;7.60;;;6.03;;
6973;SDS011;3527;52.376;8.990;2022-08-07T02:47:33;8.57;;;5.93;;
6973;SDS011;3527;52.376;8.990;2022-08-07T02:50:35;8.43;;;6.30;;
6973;SDS011;3527;52.376;8.990;2022-08-07T02:53:30;7.63;;;5.93;;
6973;SDS011;3527;52.376;8.990;2022-08-07T02:56:24;8.23;;;6.00;;
6973;SDS011;3527;52.376;8.990;2022-08-07T02:59:17;8.53;;;5.50;;
6973;SDS011;3527;52.376;8.990;2022-08-07T03:02:13;7.83;;;6.10;;
6973;SDS011;3527;52.376;8.990;2022-08-07T03:05:00;10.13;;;6.47;;
6973;SDS011;3527;52.376;8.990;2022-08-07T03:07:52;9.50;;;6.37;;
6973;SDS011;3527;52.376;8.990;2022-08-07T03:10:55;8.40;;;6.10;;
6973;SDS011;3527;52.376;8.990;2022-08-07T03:13:43;8.03;;;6.03;;
6973;SDS011;3527;52.376;8.990;2022-08-07T03:16:35;7.20;;;5.70;;
6973;SDS011;3527;52.376;8.990;2022-08-07T03:19:24;8.47;;;6.07;;
6973;SDS011;3527;52.376;8.990;2022-08-07T03:22:14;8.47;;;6.40;;
6973;SDS011;3527;52.376;8.990;2022-08-07T03:25:04;9.40;;;5.80;;
6973;SDS011;3527;52.376;8.990;2022-08-07T03:27:55;8.90;;;6.00;;
6973;SDS011;3527;52.376;8.990;2022-08-07T03:30:54;9.20;;;6.67;;
6973;SDS011;3527;52.376;8.990;2022-08-07T03:34:03;8.67;;;5.80;;
6973;SDS011;3527;52.376;8.990;2022-08-07T03:36:53;6.97;;;5.50;;
6973;SDS011;3527;52.376;8.990;2022-08-07T03:39:43;8.97;;;6.03;;
6973;SDS011;3527;52.376;8.990;2022-08-07T03:42:53;8.70;;;5.30;;
6973;SDS011;3527;52.376;8.990;2022-08-07T03:45:41;7.83;;;6.07;;
6973;SDS011;3527;52.376;8.990;2022-08-07T03:48:34;7.47;;;6.00;;
6973;SDS011;3527;52.376;8.990;2022-08-07T03:51:43;9.20;;;5.93;;
6973;SDS011;3527;52.376;8.990;2022-08-07T03:54:40;8.87;;;6.53;;
6973;SDS011;3527;52.376;8.990;2022-08-07T03:57:43;8.87;;;6.67;;
6973;SDS011;3527;52.376;8.990;2022-08-07T04:00:51;8.97;;;6.90;;
6973;SDS011;3527;52.376;8.990;2022-08-07T04:03:45;10.17;;;7.10;;
6973;SDS011;3527;52.376;8.990;2022-08-07T04:06:40;7.67;;;6.50;;
6973;SDS011;3527;52.376;8.990;2022-08-07T04:09:29;10.83;;;6.57;;
6973;SDS011;3527;52.376;8.990;2022-08-07T04:12:36;9.63;;;6.77;;
6973;SDS011;3527;52.376;8.990;2022-08-07T04:15:23;10.33;;;6.80;;
6973;SDS011;3527;52.376;8.990;2022-08-07T04:18:11;8.87;;;6.67;;
6973;SDS011;3527;52.376;8.990;2022-08-07T04:21:20;8.77;;;6.90;;
6973;SDS011;3527;52.376;8.990;2022-08-07T04:24:08;10.07;;;7.83;;
6973;SDS011;3527;52.376;8.990;2022-08-07T04:27:18;8.23;;;6.67;;
6973;SDS011;3527;52.376;8.990;2022-08-07T04:30:25;8.60;;;6.63;;
6973;SDS011;3527;52.376;8.990;2022-08-07T04:33:32;9.30;;;6.43;;
6973;SDS011;3527;52.376;8.990;2022-08-07T04:36:21;7.70;;;6.77;;
6973;SDS011;3527;52.376;8.990;2022-08-07T04:39:11;10.33;;;6.83;;
6973;SDS011;3527;52.376;8.990;2022-08-07T04:42:03;10.60;;;7.00;;
6973;SDS011;3527;52.376;8.990;2022-08-07T04:44:51;8.63;;;6.83;;
6973;SDS011;3527;52.376;8.990;2022-08-07T04:54:07;7.73;;;6.53;;
6973;SDS011;3527;52.376;8.990;2022-08-07T04:57:26;10.93;;;7.40;;
6973;SDS011;3527;52.376;8.990;2022-08-07T05:00:52;8.63;;;6.77;;
6973;SDS011;3527;52.376;8.990;2022-08-07T05:03:58;9.77;;;6.67;;
6973;SDS011;3527;52.376;8.990;2022-08-07T05:10:30;9.87;;;7.53;;
6973;SDS011;3527;52.376;8.990;2022-08-07T05:13:27;9.70;;;6.93;;
6973;SDS011;3527;52.376;8.990;2022-08-07T05:16:42;9.00;;;6.73;;
6973;SDS011;3527;52.376;8.990;2022-08-07T05:19:42;9.33;;;7.50;;
6973;SDS011;3527;52.376;8.990;2022-08-07T05:22:32;11.80;;;8.30;;
6973;SDS011;3527;52.376;8.990;2022-08-07T05:25:22;9.07;;;7.43;;
6973;SDS011;3527;52.376;8.990;2022-08-07T05:28:33;9.03;;;7.30;;
6973;SDS011;3527;52.376;8.990;2022-08-07T05:31:27;10.53;;;7.57;;
6973;SDS011;3527;52.376;8.990;2022-08-07T05:34:25;11.83;;;7.90;;
6973;SDS011;3527;52.376;8.990;2022-08-07T05:37:14;14.30;;;8.67;;
6973;SDS011;3527;52.376;8.990;2022-08-07T05:40:11;9.40;;;7.50;;
6973;SDS011;3527;52.376;8.990;2022-08-07T05:43:05;9.53;;;7.47;;
6973;SDS011;3527;52.376;8.990;2022-08-07T05:45:57;14.50;;;9.00;;
6973;SDS011;3527;52.376;8.990;2022-08-07T05:48:49;14.40;;;8.97;;
6973;SDS011;3527;52.376;8.990;2022-08-07T05:51:45;11.53;;;8.60;;
6973;SDS011;3527;52.376;8.990;2022-08-07T05:54:34;11.57;;;8.77;;
6973;SDS011;3527;52.376;8.990;2022-08-07T05:57:41;15.97;;;9.80;;
6973;SDS011;3527;52.376;8.990;2022-08-07T06:00:32;12.60;;;8.77;;
6973;SDS011;3527;52.376;8.990;2022-08-07T06:03:20;13.50;;;8.30;;
6973;SDS011;3527;52.376;8.990;2022-08-07T06:06:10;14.30;;;8.80;;
6973;SDS011;3527;52.376;8.990;2022-08-07T06:09:04;11.80;;;8.20;;
6973;SDS011;3527;52.376;8.990;2022-08-07T06:11:53;13.33;;;9.40;;
6973;SDS011;3527;52.376;8.990;2022-08-07T06:14:42;12.27;;;8.43;;
6973;SDS011;3527;52.376;8.990;2022-08-07T06:17:35;12.37;;;8.63;;
6973;SDS011;3527;52.376;8.990;2022-08-07T06:20:24;13.60;;;8.60;;
6973;SDS011;3527;52.376;8.990;2022-08-07T06:23:32;10.87;;;8.43;;
6973;SDS011;3527;52.376;8.990;2022-08-07T06:26:40;12.57;;;8.50;;
6973;SDS011;3527;52.376;8.990;2022-08-07T06:29:28;10.47;;;8.57;;
6973;SDS011;3527;52.376;8.990;2022-08-07T06:32:16;10.00;;;7.67;;
6973;SDS011;3527;52.376;8.990;2022-08-07T06:35:04;11.13;;;7.53;;
6973;SDS011;3527;52.376;8.990;2022-08-07T06:38:03;10.70;;;7.23;;
6973;SDS011;3527;52.376;8.990;2022-08-07T06:40:55;9.43;;;7.37;;
6973;SDS011;3527;52.376;8.990;2022-08-07T06:43:44;11.13;;;8.27;;
6973;SDS011;3527;52.376;8.990;2022-08-07T06:46:47;11.30;;;8.00;;
6973;SDS011;3527;52.376;8.990;2022-08-07T06:49:55;10.63;;;7.57;;
6973;SDS011;3527;52.376;8.990;2022-08-07T06:52:45;10.03;;;7.97;;
6973;SDS011;3527;52.376;8.990;2022-08-07T06:55:41;11.43;;;8.00;;
6973;SDS011;3527;52.376;8.990;2022-08-07T06:58:46;11.43;;;8.53;;
6973;SDS011;3527;52.376;8.990;2022-08-07T07:01:55;10.47;;;7.40;;
6973;SDS011;3527;52.376;8.990;2022-08-07T07:04:44;11.23;;;7.73;;
6973;SDS011;3527;52.376;8.990;2022-08-07T07:07:43;9.90;;;6.63;;
6973;SDS011;3527;52.376;8.990;2022-08-07T07:10:49;9.13;;;6.10;;
6973;SDS011;3527;52.376;8.990;2022-08-07T07:13:44;12.37;;;6.43;;
6973;SDS011;3527;52.376;8.990;2022-08-07T07:16:46;8.43;;;6.70;;
6973;SDS011;3527;52.376;8.990;2022-08-07T07:19:39;7.97;;;6.10;;
6973;SDS011;3527;52.376;8.990;2022-08-07T07:22:43;7.80;;;6.50;;
6973;SDS011;3527;52.376;8.990;2022-08-07T07:25:55;7.20;;;5.87;;
6973;SDS011;3527;52.376;8.990;2022-08-07T07:29:07;8.97;;;6.43;;
6973;SDS011;3527;52.376;8.990;2022-08-07T07:32:19;8.50;;;5.90;;
6973;SDS011;3527;52.376;8.990;2022-08-07T07:35:11;8.37;;;6.20;;
6973;SDS011;3527;52.376;8.990;2022-08-07T07:38:00;10.90;;;7.13;;
6973;SDS011;3527;52.376;8.990;2022-08-07T07:40:55;9.63;;;6.60;;
6973;SDS011;3527;52.376;8.990;2022-08-07T07:43:49;9.47;;;6.37;;
6973;SDS011;3527;52.376;8.990;2022-08-07T07:46:58;8.57;;;6.90;;
6973;SDS011;3527;52.376;8.990;2022-08-07T07:50:01;10.57;;;6.47;;
6973;SDS011;3527;52.376;8.990;2022-08-07T07:53:09;8.43;;;6.67;;
6973;SDS011;3527;52.376;8.990;2022-08-07T07:56:08;6.63;;;5.67;;
6973;SDS011;3527;52.376;8.990;2022-08-07T07:59:02;7.33;;;5.90;;
6973;SDS011;3527;52.376;8.990;2022-08-07T08:01:51;6.87;;;5.43;;
6973;SDS011;3527;52.376;8.990;2022-08-07T08:04:50;7.20;;;5.80;;
6973;SDS011;3527;52.376;8.990;2022-08-07T08:07:40;11.10;;;5.43;;
6973;SDS011;3527;52.376;8.990;2022-08-07T08:10:47;7.90;;;5.10;;
6973;SDS011;3527;52.376;8.990;2022-08-07T08:13:38;6.57;;;5.40;;
6973;SDS011;3527;52.376;8.990;2022-08-07T08:16:41;9.20;;;4.47;;
6973;SDS011;3527;52.376;8.990;2022-08-07T08:19:36;5.70;;;4.50;;
6973;SDS011;3527;52.376;8.990;2022-08-07T08:22:45;6.03;;;4.73;;
6973;SDS011;3527;52.376;8.990;2022-08-07T08:25:54;6.70;;;4.37;;
6973;SDS011;3527;52.376;8.990;2022-08-07T08:29:06;5.23;;;3.73;;
6973;SDS011;3527;52.376;8.990;2022-08-07T08:31:54;5.60;;;3.97;;
6973;SDS011;3527;52.376;8.990;2022-08-07T08:35:03;4.93;;;3.70;;
6973;SDS011;3527;52.376;8.990;2022-08-07T08:37:56;5.03;;;3.30;;
6973;SDS011;3527;52.376;8.990;2022-08-07T09:02:15;4.33;;;2.30;;
6973;SDS011;3527;52.376;8.990;2022-08-07T09:15:22;2.60;;;1.33;;
6973;SDS011;3527;52.376;8.990;2022-08-07T09:26:00;1.97;;;1.27;;
6973;SDS011;3527;52.376;8.990;2022-08-07T09:36:15;2.13;;;1.60;;
6973;SDS011;3527;52.376;8.990;2022-08-07T09:42:51;1.90;;;1.50;;
6973;SDS011;3527;52.376;8.990;2022-08-07T09:52:54;2.08;;;1.30;;
6973;SDS011;3527;52.376;8.990;2022-08-07T10:03:06;2.92;;;1.58;;
6973;SDS011;3527;52.376;8.990;2022-08-07T10:06:27;2.53;;;1.38;;
6973;SDS011;3527;52.376;8.990;2022-08-07T10:12:49;2.45;;;1.48;;
6973;SDS011;3527;52.376;8.990;2022-08-07T10:15:42;3.58;;;1.63;;
6973;SDS011;3527;52.376;8.990;2022-08-07T10:29:19;4.00;;;1.55;;
6973;SDS011;3527;52.376;8.990;2022-08-07T10:35:49;2.55;;;1.60;;
6973;SDS011;3527;52.376;8.990;2022-08-07T10:45:46;2.95;;;1.30;;
6973;SDS011;3527;52.376;8.990;2022-08-07T10:49:06;2.97;;;1.50;;
6973;SDS011;3527;52.376;8.990;2022-08-07T10:52:44;2.08;;;1.70;;
6973;SDS011;3527;52.376;8.990;2022-08-07T10:55:20;2.35;;;1.33;;
6973;SDS011;3527;52.376;8.990;2022-08-07T11:05:04;3.25;;;1.73;;
6973;SDS011;3527;52.376;8.990;2022-08-07T11:08:08;2.45;;;1.60;;
6973;SDS011;3527;52.376;8.990;2022-08-07T11:13:56;3.53;;;1.30;;
6973;SDS011;3527;52.376;8.990;2022-08-07T11:17:18;2.00;;;1.40;;
6973;SDS011;3527;52.376;8.990;2022-08-07T11:20:36;3.28;;;1.80;;
6973;SDS011;3527;52.376;8.990;2022-08-07T11:24:04;3.88;;;1.58;;
6973;SDS011;3527;52.376;8.990;2022-08-07T11:30:06;2.58;;;1.50;;
6973;SDS011;3527;52.376;8.990;2022-08-07T11:33:16;2.42;;;1.35;;
6973;SDS011;3527;52.376;8.990;2022-08-07T11:39:34;2.22;;;1.40;;
6973;SDS011;3527;52.376;8.990;2022-08-07T11:53:21;2.85;;;1.40;;
6973;SDS011;3527;52.376;8.990;2022-08-07T12:03:01;1.65;;;1.35;;
6973;SDS011;3527;52.376;8.990;2022-08-07T12:06:27;2.63;;;1.50;;
6973;SDS011;3527;52.376;8.990;2022-08-07T12:09:43;1.48;;;1.20;;
6973;SDS011;3527;52.376;8.990;2022-08-07T12:12:41;1.73;;;1.33;;
6973;SDS011;3527;52.376;8.990;2022-08-07T12:15:38;2.28;;;1.65;;
6973;SDS011;3527;52.376;8.990;2022-08-07T12:25:40;2.63;;;1.45;;
6973;SDS011;3527;52.376;8.990;2022-08-07T12:29:02;2.17;;;1.50;;
6973;SDS011;3527;52.376;8.990;2022-08-07T12:34:51;2.00;;;1.48;;
6973;SDS011;3527;52.376;8.990;2022-08-07T12:37:45;2.15;;;1.40;;
6973;SDS011;3527;52.376;8.990;2022-08-07T12:40:54;1.90;;;1.40;;
6973;SDS011;3527;52.376;8.990;2022-08-07T12:43:43;1.95;;;1.48;;
6973;SDS011;3527;52.376;8.990;2022-08-07T12:53:33;1.70;;;1.55;;
6973;SDS011;3527;52.376;8.990;2022-08-07T12:56:46;3.22;;;1.45;;
6973;SDS011;3527;52.376;8.990;2022-08-07T12:59:55;1.80;;;1.52;;
6973;SDS011;3527;52.376;8.990;2022-08-07T13:13:26;3.80;;;1.70;;
6973;SDS011;3527;52.376;8.990;2022-08-07T13:19:53;2.20;;;1.48;;
6973;SDS011;3527;52.376;8.990;2022-08-07T13:25:45;1.70;;;1.40;;
6973;SDS011;3527;52.376;8.990;2022-08-07T13:29:08;3.05;;;1.80;;
6973;SDS011;3527;52.376;8.990;2022-08-07T13:32:00;2.67;;;1.80;;
6973;SDS011;3527;52.376;8.990;2022-08-07T13:42:32;3.78;;;1.70;;
6973;SDS011;3527;52.376;8.990;2022-08-07T13:45:29;2.80;;;1.88;;
6973;SDS011;3527;52.376;8.990;2022-08-07T13:48:43;2.05;;;1.85;;
6973;SDS011;3527;52.376;8.990;2022-08-07T13:51:44;2.13;;;1.80;;
6973;SDS011;3527;52.376;8.990;2022-08-07T13:54:55;3.60;;;1.63;;
6973;SDS011;3527;52.376;8.990;2022-08-07T13:57:48;2.42;;;1.50;;
6973;SDS011;3527;52.376;8.990;2022-08-07T14:00:47;4.10;;;1.80;;
6973;SDS011;3527;52.376;8.990;2022-08-07T14:07:45;2.60;;;1.77;;
6973;SDS011;3527;52.376;8.990;2022-08-07T14:10:47;3.63;;;1.60;;
6973;SDS011;3527;52.376;8.990;2022-08-07T14:14:02;3.28;;;1.80;;
6973;SDS011;3527;52.376;8.990;2022-08-07T14:16:53;3.55;;;1.80;;
6973;SDS011;3527;52.376;8.990;2022-08-07T14:20:07;2.63;;;1.70;;
6973;SDS011;3527;52.376;8.990;2022-08-07T14:23:26;4.13;;;1.77;;
6973;SDS011;3527;52.376;8.990;2022-08-07T14:26:42;2.67;;;1.63;;
6973;SDS011;3527;52.376;8.990;2022-08-07T14:29:46;2.90;;;1.80;;
6973;SDS011;3527;52.376;8.990;2022-08-07T14:32:56;2.78;;;1.70;;
6973;SDS011;3527;52.376;8.990;2022-08-07T14:35:45;2.72;;;1.80;;
6973;SDS011;3527;52.376;8.990;2022-08-07T14:38:33;2.25;;;1.67;;
6973;SDS011;3527;52.376;8.990;2022-08-07T14:41:25;3.65;;;1.90;;
6973;SDS011;3527;52.376;8.990;2022-08-07T14:44:36;2.10;;;1.58;;
6973;SDS011;3527;52.376;8.990;2022-08-07T14:47:26;2.13;;;1.50;;
6973;SDS011;3527;52.376;8.990;2022-08-07T14:50:19;2.88;;;1.77;;
6973;SDS011;3527;52.376;8.990;2022-08-07T14:53:10;3.28;;;1.80;;
6973;SDS011;3527;52.376;8.990;2022-08-07T14:56:05;2.63;;;1.67;;
6973;SDS011;3527;52.376;8.990;2022-08-07T14:59:18;2.30;;;1.58;;
6973;SDS011;3527;52.376;8.990;2022-08-07T15:02:27;3.08;;;1.90;;
6973;SDS011;3527;52.376;8.990;2022-08-07T15:05:19;3.58;;;1.58;;
6973;SDS011;3527;52.376;8.990;2022-08-07T15:08:09;2.90;;;1.67;;
6973;SDS011;3527;52.376;8.990;2022-08-07T15:11:07;2.40;;;1.85;;
6973;SDS011;3527;52.376;8.990;2022-08-07T15:14:02;2.50;;;1.92;;
6973;SDS011;3527;52.376;8.990;2022-08-07T15:17:14;3.35;;;1.85;;
6973;SDS011;3527;52.376;8.990;2022-08-07T15:20:03;3.08;;;1.70;;
6973;SDS011;3527;52.376;8.990;2022-08-07T15:23:21;3.78;;;1.85;;
6973;SDS011;3527;52.376;8.990;2022-08-07T15:26:37;2.53;;;1.75;;
6973;SDS011;3527;52.376;8.990;2022-08-07T15:29:32;2.90;;;2.17;;
6973;SDS011;3527;52.376;8.990;2022-08-07T15:32:45;1.63;;;1.40;;
6973;SDS011;3527;52.376;8.990;2022-08-07T15:35:51;3.28;;;1.88;;
6973;SDS011;3527;52.376;8.990;2022-08-07T15:38:50;2.35;;;1.67;;
6973;SDS011;3527;52.376;8.990;2022-08-07T15:42:03;2.28;;;1.70;;
6973;SDS011;3527;52.376;8.990;2022-08-07T15:48:32;1.80;;;1.60;;
6973;SDS011;3527;52.376;8.990;2022-08-07T15:51:43;2.05;;;1.70;;
6973;SDS011;3527;52.376;8.990;2022-08-07T15:54:48;3.80;;;1.73;;
6973;SDS011;3527;52.376;8.990;2022-08-07T15:57:50;2.90;;;1.90;;
6973;SDS011;3527;52.376;8.990;2022-08-07T16:00:46;2.80;;;1.75;;
6973;SDS011;3527;52.376;8.990;2022-08-07T16:03:38;2.78;;;1.70;;
6973;SDS011;3527;52.376;8.990;2022-08-07T16:06:48;2.88;;;1.83;;
6973;SDS011;3527;52.376;8.990;2022-08-07T16:16:48;2.60;;;1.85;;
6973;SDS011;3527;52.376;8.990;2022-08-07T16:30:08;2.25;;;1.42;;
6973;SDS011;3527;52.376;8.990;2022-08-07T16:33:17;1.83;;;1.60;;
6973;SDS011;3527;52.376;8.990;2022-08-07T16:36:44;2.38;;;1.70;;
6973;SDS011;3527;52.376;8.990;2022-08-07T16:47:12;2.97;;;1.67;;
6973;SDS011;3527;52.376;8.990;2022-08-07T17:03:07;5.38;;;2.17;;
6973;SDS011;3527;52.376;8.990;2022-08-07T17:13:00;2.30;;;1.73;;
6973;SDS011;3527;52.376;8.990;2022-08-07T17:18:59;4.07;;;2.05;;
6973;SDS011;3527;52.376;8.990;2022-08-07T17:21:51;2.65;;;2.10;;
6973;SDS011;3527;52.376;8.990;2022-08-07T17:30:56;2.78;;;2.00;;
6973;SDS011;3527;52.376;8.990;2022-08-07T17:34:10;3.95;;;2.05;;
6973;SDS011;3527;52.376;8.990;2022-08-07T17:37:26;2.17;;;1.70;;
6973;SDS011;3527;52.376;8.990;2022-08-07T17:40:44;2.97;;;2.00;;
6973;SDS011;3527;52.376;8.990;2022-08-07T17:44:16;2.28;;;1.80;;
6973;SDS011;3527;52.376;8.990;2022-08-07T17:50:33;4.13;;;1.90;;
6973;SDS011;3527;52.376;8.990;2022-08-07T17:56:56;2.50;;;1.80;;
6973;SDS011;3527;52.376;8.990;2022-08-07T17:59:48;3.47;;;2.10;;
6973;SDS011;3527;52.376;8.990;2022-08-07T18:02:41;3.03;;;2.10;;
6973;SDS011;3527;52.376;8.990;2022-08-07T18:05:59;2.43;;;2.03;;
6973;SDS011;3527;52.376;8.990;2022-08-07T18:08:55;3.40;;;2.07;;
6973;SDS011;3527;52.376;8.990;2022-08-07T18:15:39;5.40;;;2.23;;
6973;SDS011;3527;52.376;8.990;2022-08-07T18:18:43;2.47;;;1.73;;
6973;SDS011;3527;52.376;8.990;2022-08-07T18:21:58;2.83;;;2.00;;
6973;SDS011;3527;52.376;8.990;2022-08-07T18:25:02;3.37;;;2.03;;
6973;SDS011;3527;52.376;8.990;2022-08-07T18:51:43;5.13;;;2.00;;
6973;SDS011;3527;52.376;8.990;2022-08-07T19:02:24;3.23;;;1.90;;
6973;SDS011;3527;52.376;8.990;2022-08-07T19:05:35;4.23;;;2.17;;
6973;SDS011;3527;52.376;8.990;2022-08-07T19:14:58;2.67;;;1.80;;
6973;SDS011;3527;52.376;8.990;2022-08-07T19:18:32;3.93;;;2.20;;
6973;SDS011;3527;52.376;8.990;2022-08-07T19:21:37;3.57;;;2.00;;
6973;SDS011;3527;52.376;8.990;2022-08-07T19:24:49;3.87;;;2.07;;
6973;SDS011;3527;52.376;8.990;2022-08-07T19:27:39;3.27;;;2.20;;
6973;SDS011;3527;52.376;8.990;2022-08-07T19:30:48;2.53;;;1.83;;
6973;SDS011;3527;52.376;8.990;2022-08-07T19:34:00;3.07;;;1.87;;
6973;SDS011;3527;52.376;8.990;2022-08-07T19:36:50;3.47;;;2.13;;
6973;SDS011;3527;52.376;8.990;2022-08-07T19:39:39;2.57;;;2.00;;
6973;SDS011;3527;52.376;8.990;2022-08-07T19:42:47;3.03;;;2.20;;
6973;SDS011;3527;52.376;8.990;2022-08-07T19:45:35;2.77;;;1.90;;
6973;SDS011;3527;52.376;8.990;2022-08-07T19:48:48;3.00;;;2.00;;
6973;SDS011;3527;52.376;8.990;2022-08-07T19:51:41;2.77;;;1.70;;
6973;SDS011;3527;52.376;8.990;2022-08-07T19:54:45;3.23;;;2.00;;
6973;SDS011;3527;52.376;8.990;2022-08-07T19:57:51;2.30;;;1.73;;
6973;SDS011;3527;52.376;8.990;2022-08-07T20:01:00;3.83;;;2.13;;
6973;SDS011;3527;52.376;8.990;2022-08-07T20:03:55;3.30;;;2.07;;
6973;SDS011;3527;52.376;8.990;2022-08-07T20:07:12;3.53;;;2.50;;
6973;SDS011;3527;52.376;8.990;2022-08-07T20:10:09;4.43;;;2.40;;
6973;SDS011;3527;52.376;8.990;2022-08-07T20:13:30;3.10;;;2.50;;
6973;SDS011;3527;52.376;8.990;2022-08-07T20:16:28;4.90;;;2.30;;
6973;SDS011;3527;52.376;8.990;2022-08-07T20:19:25;5.27;;;2.57;;
6973;SDS011;3527;52.376;8.990;2022-08-07T20:22:33;3.73;;;2.33;;
6973;SDS011;3527;52.376;8.990;2022-08-07T20:25:26;3.93;;;2.20;;
6973;SDS011;3527;52.376;8.990;2022-08-07T20:28:26;2.53;;;2.23;;
6973;SDS011;3527;52.376;8.990;2022-08-07T20:31:17;3.27;;;2.50;;
6973;SDS011;3527;52.376;8.990;2022-08-07T20:34:07;3.23;;;2.20;;
6973;SDS011;3527;52.376;8.990;2022-08-07T20:36:55;4.13;;;2.20;;
6973;SDS011;3527;52.376;8.990;2022-08-07T20:39:44;4.40;;;2.63;;
6973;SDS011;3527;52.376;8.990;2022-08-07T20:42:50;4.23;;;2.63;;
6973;SDS011;3527;52.376;8.990;2022-08-07T20:45:43;3.50;;;2.50;;
6973;SDS011;3527;52.376;8.990;2022-08-07T20:48:57;4.70;;;2.70;;
6973;SDS011;3527;52.376;8.990;2022-08-07T20:52:13;5.43;;;2.80;;
6973;SDS011;3527;52.376;8.990;2022-08-07T20:55:06;3.47;;;2.40;;
6973;SDS011;3527;52.376;8.990;2022-08-07T20:57:57;3.73;;;2.70;;
6973;SDS011;3527;52.376;8.990;2022-08-07T21:00:54;3.50;;;2.70;;
6973;SDS011;3527;52.376;8.990;2022-08-07T21:03:49;4.70;;;2.60;;
6973;SDS011;3527;52.376;8.990;2022-08-07T21:07:00;6.87;;;2.60;;
6973;SDS011;3527;52.376;8.990;2022-08-07T21:10:01;3.23;;;2.50;;
6973;SDS011;3527;52.376;8.990;2022-08-07T21:12:49;2.77;;;2.20;;
6973;SDS011;3527;52.376;8.990;2022-08-07T21:15:41;4.00;;;2.37;;
6973;SDS011;3527;52.376;8.990;2022-08-07T21:18:44;3.37;;;2.23;;
6973;SDS011;3527;52.376;8.990;2022-08-07T21:21:38;3.00;;;2.50;;
6973;SDS011;3527;52.376;8.990;2022-08-07T21:28:11;4.47;;;3.13;;
6973;SDS011;3527;52.376;8.990;2022-08-07T21:31:34;3.93;;;2.77;;
6973;SDS011;3527;52.376;8.990;2022-08-07T21:34:53;7.93;;;2.87;;
6973;SDS011;3527;52.376;8.990;2022-08-07T21:37:50;4.77;;;3.40;;
6973;SDS011;3527;52.376;8.990;2022-08-07T21:40:48;5.27;;;3.10;;
6973;SDS011;3527;52.376;8.990;2022-08-07T21:44:12;7.43;;;3.37;;
6973;SDS011;3527;52.376;8.990;2022-08-07T21:47:18;3.70;;;3.00;;
6973;SDS011;3527;52.376;8.990;2022-08-07T21:50:16;5.10;;;3.20;;
6973;SDS011;3527;52.376;8.990;2022-08-07T21:53:23;5.03;;;3.33;;
6973;SDS011;3527;52.376;8.990;2022-08-07T22:06:12;4.43;;;3.27;;
6973;SDS011;3527;52.376;8.990;2022-08-07T22:09:17;4.33;;;3.93;;
6973;SDS011;3527;52.376;8.990;2022-08-07T22:12:23;4.83;;;3.43;;
6973;SDS011;3527;52.376;8.990;2022-08-07T22:19:02;4.73;;;3.40;;
6973;SDS011;3527;52.376;8.990;2022-08-07T22:21:59;6.43;;;3.93;;
6973;SDS011;3527;52.376;8.990;2022-08-07T22:29:16;6.47;;;3.67;;
6973;SDS011;3527;52.376;8.990;2022-08-07T22:34:59;5.07;;;3.87;;
6973;SDS011;3527;52.376;8.990;2022-08-07T22:41:15;6.17;;;4.27;;
6973;SDS011;3527;52.376;8.990;2022-08-07T22:44:27;7.27;;;4.00;;
6973;SDS011;3527;52.376;8.990;2022-08-07T22:47:23;6.07;;;3.93;;
6973;SDS011;3527;52.376;8.990;2022-08-07T22:53:50;4.57;;;3.57;;
6973;SDS011;3527;52.376;8.990;2022-08-07T23:06:49;7.53;;;4.63;;
6973;SDS011;3527;52.376;8.990;2022-08-07T23:23:39;6.47;;;4.57;;
6973;SDS011;3527;52.376;8.990;2022-08-07T23:30:20;5.40;;;4.50;;
6973;SDS011;3527;52.376;8.990;2022-08-07T23:37:15;5.83;;;4.60;;
6973;SDS011;3527;52.376;8.990;2022-08-07T23:40:49;6.30;;;4.23;;
6973;SDS011;3527;52.376;8.990;2022-08-07T23:47:29;7.27;;;4.70;;
6973;SDS011;3527;52.376;8.990;2022-08-07T23:50:50;5.57;;;5.00;;
6973;SDS011;3527;52.376;8.990;2022-08-07T23:54:30;6.17;;;5.20;;
6973;SDS011;3527;52.376;8.990;2022-08-07T23:57:35;6.50;;;5.50;;
